Time;durP1;ratioP1;P1;durP2;ratioP2;P2;SDS_P1;SDS_P2;PMS_P1;PMS_P2;Temp;Humidity;BMP_temperature;BMP_pressure;BME280_temperature;BME280_humidity;BME280_pressure;Samples;Min_cycle;Max_cycle;Signal;HPM_P1;HPM_P2
2021/11/19 00:04:18;;;;;;;55.63;51.50;;;;;;;11.85;100.00;103254.41;2011670;71;33009;-72
2021/11/19 00:10:03;;;;;;;57.00;52.83;;;;;;;11.98;100.00;103249.20;2002527;71;32826;-72
2021/11/19 00:15:48;;;;;;;56.30;51.90;;;;;;;12.04;100.00;103242.66;2006344;71;32870;-73
2021/11/19 00:24:41;;;;;;;54.53;50.53;;;;;;;12.07;100.00;103249.99;2060950;69;32664;-73
2021/11/19 00:27:14;;;;;;;55.80;51.63;;;;;;;12.09;100.00;103256.73;2014424;70;26207;-72
2021/11/19 00:29:44;;;;;;;54.87;50.77;;;;;;;12.10;100.00;103262.08;2012385;70;26234;-73
2021/11/19 00:32:15;;;;;;;55.87;51.83;;;;;;;12.12;100.00;103261.28;2009856;70;26308;-72
2021/11/19 00:34:48;;;;;;;56.00;51.50;;;;;;;12.09;100.00;103262.30;2008622;70;26223;-72
2021/11/19 00:37:19;;;;;;;56.40;52.20;;;;;;;12.13;100.00;103259.34;2013036;70;26207;-73
2021/11/19 00:39:51;;;;;;;54.77;50.67;;;;;;;12.10;100.00;103262.62;2016798;71;26276;-72
2021/11/19 00:42:21;;;;;;;54.80;50.73;;;;;;;12.11;100.00;103266.55;2016812;70;26692;-72
2021/11/19 00:44:51;;;;;;;56.43;52.03;;;;;;;12.11;100.00;103260.12;2008579;70;26293;-72
2021/11/19 00:47:21;;;;;;;56.30;52.07;;;;;;;12.14;100.00;103261.91;2024140;70;26279;-73
2021/11/19 00:49:52;;;;;;;56.70;52.50;;;;;;;12.13;100.00;103250.99;2013909;70;26211;-72
2021/11/19 00:52:23;;;;;;;55.30;51.10;;;;;;;12.13;100.00;103256.56;2012124;70;26790;-73
2021/11/19 00:54:53;;;;;;;56.10;51.80;;;;;;;12.17;100.00;103253.61;1998692;70;26199;-72
2021/11/19 00:57:24;;;;;;;55.83;51.53;;;;;;;12.18;100.00;103255.31;2016931;70;26207;-73
2021/11/19 00:59:55;;;;;;;56.60;52.40;;;;;;;12.20;100.00;103256.77;2012807;70;26355;-72
2021/11/19 01:02:27;;;;;;;56.07;51.93;;;;;;;12.20;100.00;103257.30;2015622;70;26174;-73
2021/11/19 01:04:57;;;;;;;54.37;50.17;;;;;;;12.18;100.00;103249.74;2023265;70;26214;-72
2021/11/19 01:07:28;;;;;;;58.47;53.97;;;;;;;12.19;100.00;103251.45;2013294;70;26748;-73
2021/11/19 01:10:01;;;;;;;55.73;51.40;;;;;;;12.22;100.00;103256.00;2013235;70;26200;-72
2021/11/19 01:12:33;;;;;;;57.50;53.00;;;;;;;12.18;100.00;103246.42;2013163;70;24170;-73
2021/11/19 01:15:07;;;;;;;56.60;52.30;;;;;;;12.17;100.00;103248.03;2008432;70;26667;-72
2021/11/19 01:17:41;;;;;;;56.73;52.53;;;;;;;12.17;100.00;103234.10;2016859;70;26329;-73
2021/11/19 01:20:14;;;;;;;57.70;53.30;;;;;;;12.12;100.00;103238.99;2016722;70;26680;-72
2021/11/19 01:26:03;;;;;;;57.53;53.23;;;;;;;12.17;100.00;103230.77;2017191;71;33359;-73
2021/11/19 01:31:52;;;;;;;59.07;54.47;;;;;;;12.18;100.00;103236.66;1995408;71;32854;-72
2021/11/19 01:37:36;;;;;;;56.53;51.80;;;;;;;12.19;100.00;103237.52;2000872;71;33308;-73
2021/11/19 01:43:23;;;;;;;56.90;52.63;;;;;;;12.17;100.00;103242.46;2016782;71;33394;-72
2021/11/19 01:49:09;;;;;;;56.17;52.07;;;;;;;12.16;100.00;103240.22;2011856;71;32872;-72
2021/11/19 01:54:59;;;;;;;57.47;53.17;;;;;;;12.13;100.00;103244.03;2008252;71;32913;-72
2021/11/19 02:00:48;;;;;;;55.73;51.53;;;;;;;12.06;100.00;103242.75;2001007;70;33320;-73
2021/11/19 02:06:37;;;;;;;56.33;52.03;;;;;;;12.05;100.00;103238.80;1997243;71;32902;-73
2021/11/19 02:12:31;;;;;;;56.87;52.67;;;;;;;12.03;100.00;103235.38;1991836;71;32883;-73
2021/11/19 02:15:07;;;;;;;57.30;53.10;;;;;;;11.96;100.00;103241.06;1962620;72;26270;-73
2021/11/19 02:20:55;;;;;;;53.67;49.67;;;;;;;11.95;100.00;103242.68;2016888;71;32853;-72
2021/11/19 02:26:43;;;;;;;58.57;54.07;;;;;;;11.92;100.00;103243.16;2013697;71;32871;-72
2021/11/19 02:32:31;;;;;;;56.73;52.43;;;;;;;11.92;100.00;103240.37;2016944;71;33376;-72
2021/11/19 02:38:16;;;;;;;55.93;51.93;;;;;;;11.92;100.00;103237.05;2016882;71;32820;-73
2021/11/19 02:44:03;;;;;;;57.83;53.50;;;;;;;11.96;100.00;103237.42;1991901;71;33340;-72
2021/11/19 02:49:49;;;;;;;56.30;51.90;;;;;;;11.98;100.00;103237.48;2012030;71;33303;-72
2021/11/19 02:55:38;;;;;;;55.73;51.53;;;;;;;11.96;100.00;103236.88;2014961;70;33494;-72
2021/11/19 03:01:27;;;;;;;55.03;50.93;;;;;;;12.05;100.00;103216.50;2018693;71;32965;-73
2021/11/19 03:07:22;;;;;;;56.30;52.13;;;;;;;11.96;100.00;103210.42;2015085;71;32960;-73
2021/11/19 03:13:09;;;;;;;56.37;52.07;;;;;;;12.00;100.00;103213.58;1994922;71;32899;-71
2021/11/19 03:18:55;;;;;;;56.43;52.27;;;;;;;12.03;100.00;103212.55;2002656;71;32748;-73
2021/11/19 03:24:39;;;;;;;55.33;51.20;;;;;;;12.01;100.00;103214.74;2002845;71;33416;-72
2021/11/19 03:30:28;;;;;;;56.73;52.57;;;;;;;11.99;100.00;103218.30;1998638;71;32819;-73
2021/11/19 03:36:14;;;;;;;56.27;52.27;;;;;;;11.99;100.00;103218.30;2005963;71;32951;-73
2021/11/19 03:42:02;;;;;;;56.60;52.37;;;;;;;11.92;100.00;103216.16;2018861;71;33456;-72
2021/11/19 03:47:50;;;;;;;54.60;50.70;;;;;;;11.92;100.00;103218.09;2013200;71;32805;-72
2021/11/19 03:53:36;;;;;;;54.87;50.77;;;;;;;11.99;100.00;103209.94;2013174;71;33514;-73
2021/11/19 03:59:21;;;;;;;54.63;50.67;;;;;;;11.99;100.00;103209.94;2004318;71;33441;-72
2021/11/19 04:05:08;;;;;;;53.40;49.50;;;;;;;12.11;100.00;103208.57;2004508;71;32789;-72
2021/11/19 04:10:53;;;;;;;53.57;49.53;;;;;;;11.91;100.00;103205.25;2015162;71;33381;-71
2021/11/19 04:16:39;;;;;;;53.47;49.67;;;;;;;11.86;100.00;103202.63;2004228;71;33451;-73
2021/11/19 04:22:25;;;;;;;52.60;48.67;;;;;;;11.79;100.00;103208.00;1989542;71;32822;-73
2021/11/19 04:28:10;;;;;;;52.37;48.67;;;;;;;11.80;100.00;103202.74;2013206;71;32843;-73
2021/11/19 04:33:57;;;;;;;55.57;51.47;;;;;;;11.81;100.00;103200.23;1991896;71;32853;-73
2021/11/19 04:39:41;;;;;;;55.33;51.13;;;;;;;11.91;100.00;103195.50;1995422;71;32824;-72
2021/11/19 04:45:28;;;;;;;54.30;50.30;;;;;;;11.82;100.00;103201.94;2016826;71;32933;-72
2021/11/19 04:51:16;;;;;;;53.87;49.87;;;;;;;11.82;100.00;103200.55;2009539;71;33378;-73
2021/11/19 04:57:01;;;;;;;54.93;50.77;;;;;;;11.94;100.00;103202.83;2003137;71;32907;-73
2021/11/19 05:02:49;;;;;;;51.77;47.93;;;;;;;11.84;100.00;103198.39;1862108;76;86098;-72
2021/11/19 05:08:34;;;;;;;54.93;50.90;;;;;;;11.77;100.00;103210.16;1995093;71;33344;-73
2021/11/19 05:14:21;;;;;;;53.07;49.27;;;;;;;11.85;100.00;103214.02;2000944;71;33458;-73
2021/11/19 05:20:09;;;;;;;52.17;48.17;;;;;;;11.92;100.00;103213.92;2015020;71;32840;-72
2021/11/19 05:25:55;;;;;;;52.97;48.97;;;;;;;11.85;100.00;103220.99;1995571;71;33308;-72
2021/11/19 05:31:40;;;;;;;52.33;48.60;;;;;;;11.84;100.00;103213.71;2011503;71;32955;-72
2021/11/19 05:37:24;;;;;;;54.50;50.50;;;;;;;11.77;100.00;103217.97;2013590;71;32895;-73
2021/11/19 05:43:08;;;;;;;51.50;47.60;;;;;;;11.78;100.00;103231.35;2002778;71;32911;-73
2021/11/19 05:48:54;;;;;;;52.23;48.33;;;;;;;11.79;100.00;103225.56;2008121;71;32883;-72
2021/11/19 05:54:42;;;;;;;52.80;49.00;;;;;;;11.83;100.00;103232.89;2013758;71;32859;-72
2021/11/19 06:00:32;;;;;;;55.50;51.30;;;;;;;12.01;100.00;103242.60;2007919;71;33312;-73
2021/11/19 06:06:17;;;;;;;52.70;48.90;;;;;;;12.06;100.00;103245.53;2018714;71;33308;-73
2021/11/19 06:12:05;;;;;;;50.70;47.10;;;;;;;12.12;100.00;103252.92;2013258;71;33499;-73
2021/11/19 06:17:53;;;;;;;52.63;48.97;;;;;;;12.25;100.00;103262.48;2005966;71;33417;-72
2021/11/19 06:23:44;;;;;;;51.13;47.60;;;;;;;12.27;100.00;103258.92;2013362;71;33341;-72
2021/11/19 06:29:34;;;;;;;53.93;50.13;;;;;;;12.42;100.00;103257.06;2011850;71;32833;-73
2021/11/19 06:35:26;;;;;;;53.70;49.93;;;;;;;12.39;100.00;103260.34;2011583;71;33378;-72
2021/11/19 06:41:11;;;;;;;52.93;49.33;;;;;;;12.40;100.00;103257.87;1997214;71;32885;-72
2021/11/19 06:46:56;;;;;;;52.50;48.93;;;;;;;12.44;100.00;103266.06;1991688;71;32874;-72
2021/11/19 06:52:40;;;;;;;51.87;48.40;;;;;;;12.50;100.00;103273.44;2001072;71;33312;-72
2021/11/19 06:58:26;;;;;;;50.93;47.53;;;;;;;12.49;100.00;103274.56;2005820;71;33333;-73
2021/11/19 07:04:12;;;;;;;50.53;47.17;;;;;;;12.47;100.00;103280.05;2013635;71;32908;-71
2021/11/19 07:09:57;;;;;;;54.00;50.40;;;;;;;12.46;100.00;103274.16;2016937;71;32911;-72
2021/11/19 07:15:43;;;;;;;52.00;48.60;;;;;;;12.50;100.00;103281.81;2011220;71;32985;-72
2021/11/19 07:21:29;;;;;;;51.30;47.80;;;;;;;12.52;100.00;103275.46;2014999;71;32902;-72
2021/11/19 07:27:13;;;;;;;51.77;48.37;;;;;;;12.50;100.00;103284.59;2016914;70;33318;-72
2021/11/19 07:32:58;;;;;;;51.20;47.60;;;;;;;12.53;100.00;103286.93;2006378;71;33364;-72
2021/11/19 07:38:43;;;;;;;50.23;46.87;;;;;;;12.55;100.00;103282.48;2011593;71;33318;-72
2021/11/19 07:44:28;;;;;;;51.37;47.83;;;;;;;12.54;100.00;103288.61;1995131;70;33305;-72
2021/11/19 07:50:17;;;;;;;48.47;45.17;;;;;;;12.56;100.00;103296.73;2016743;71;32961;-72
2021/11/19 07:56:02;;;;;;;53.60;50.10;;;;;;;12.53;100.00;103296.69;2016780;71;32824;-71
2021/11/19 08:01:50;;;;;;;53.10;49.60;;;;;;;12.54;100.00;103303.09;2013229;71;33409;-71
2021/11/19 08:07:35;;;;;;;54.80;51.33;;;;;;;12.61;100.00;103306.09;2004258;71;32855;-71
2021/11/19 08:13:21;;;;;;;55.80;52.30;;;;;;;12.62;100.00;103307.77;2002281;71;32823;-70
2021/11/19 08:19:08;;;;;;;54.97;51.57;;;;;;;12.57;100.00;103307.67;2000584;71;33369;-71
2021/11/19 08:24:53;;;;;;;50.03;46.77;;;;;;;12.59;100.00;103313.84;2014917;71;33407;-70
2021/11/19 08:30:45;;;;;;;51.10;47.80;;;;;;;12.67;100.00;103313.48;2004101;71;33468;-72
2021/11/19 08:36:32;;;;;;;52.40;49.10;;;;;;;12.71;100.00;103308.28;2001032;71;33258;-70
2021/11/19 08:42:17;;;;;;;49.37;46.13;;;;;;;12.73;100.00;103311.15;2008059;71;33410;-72
2021/11/19 08:48:07;;;;;;;54.50;51.13;;;;;;;12.78;100.00;103311.83;2014901;71;32913;-72
2021/11/19 08:53:54;;;;;;;53.57;50.07;;;;;;;12.74;100.00;103324.55;2011982;71;33417;-73
2021/11/19 08:59:41;;;;;;;56.70;53.00;;;;;;;12.71;100.00;103323.62;2005765;71;32802;-70
2021/11/19 09:05:31;;;;;;;54.00;50.40;;;;;;;12.74;100.00;103328.20;1995369;71;32904;-71
2021/11/19 09:11:19;;;;;;;52.93;49.57;;;;;;;12.77;100.00;103334.69;2013327;70;32858;-71
2021/11/19 09:17:08;;;;;;;56.07;52.40;;;;;;;12.76;100.00;103330.72;1997493;71;32782;-72
2021/11/19 09:22:57;;;;;;;53.00;49.63;;;;;;;12.88;100.00;103337.74;2000862;71;33355;-71
2021/11/19 09:28:44;;;;;;;49.80;46.50;;;;;;;12.86;100.00;103334.33;2006467;71;33323;-72
2021/11/19 09:34:31;;;;;;;48.97;45.93;;;;;;;12.86;100.00;103341.30;2006006;71;33363;-73
2021/11/19 09:40:16;;;;;;;48.77;45.70;;;;;;;12.85;100.00;103339.59;2013326;71;33308;-73
2021/11/19 09:46:38;;;;;;;50.03;46.93;;;;;;;12.87;100.00;103341.62;2009759;71;32819;-70
2021/11/19 09:52:59;;;;;;;47.43;44.43;;;;;;;12.89;100.00;103345.86;2010308;71;32769;-71
2021/11/19 09:59:21;;;;;;;49.17;46.07;;;;;;;12.90;100.00;103346.70;2015101;71;32893;-70
2021/11/19 10:05:45;;;;;;;48.00;45.00;;;;;;;12.90;100.00;103339.73;2013420;71;33426;-72
2021/11/19 10:11:59;;;;;;;45.80;42.90;;;;;;;12.88;100.00;103334.95;2002183;71;33337;-73
2021/11/19 10:17:59;;;;;;;49.00;45.83;;;;;;;12.93;100.00;103329.47;1995448;71;32816;-73
2021/11/19 10:23:48;;;;;;;48.50;45.40;;;;;;;13.00;100.00;103330.23;2009464;71;33416;-72
2021/11/19 10:29:37;;;;;;;47.93;44.93;;;;;;;13.02;100.00;103325.25;1991869;71;33233;-72
2021/11/19 10:39:33;;;;;;;45.57;42.83;;;;;;;13.04;100.00;103316.95;2010071;71;33417;-72
2021/11/19 10:42:43;;;;;;;46.00;43.10;;;;;;;13.12;100.00;103319.41;1984720;72;26216;-73
2021/11/19 10:46:04;;;;;;;45.73;42.93;;;;;;;13.13;100.00;103325.85;1966122;72;26340;-72
2021/11/19 10:52:42;;;;;;;46.87;43.87;;;;;;;13.12;100.00;103312.98;2012054;71;33255;-71
2021/11/19 10:56:07;;;;;;;44.97;42.17;;;;;;;13.07;100.00;103322.04;1958761;72;26209;-71
2021/11/19 11:02:26;;;;;;;47.07;44.07;;;;;;;13.12;100.00;103311.58;2017001;71;32813;-73
2021/11/19 11:08:22;;;;;;;47.17;44.17;;;;;;;13.09;100.00;103302.27;2010273;71;33321;-72
2021/11/19 11:14:10;;;;;;;48.37;45.37;;;;;;;13.13;100.00;103299.34;2015154;71;32896;-72
2021/11/19 11:19:59;;;;;;;47.37;44.17;;;;;;;13.15;100.00;103299.38;2014946;71;32840;-73
2021/11/19 11:25:47;;;;;;;49.23;46.00;;;;;;;13.10;100.00;103292.79;2011586;71;33446;-72
2021/11/19 11:31:51;;;;;;;50.03;46.93;;;;;;;13.06;100.00;103286.84;2011686;71;32939;-73
2021/11/19 11:34:26;;;;;;;50.00;46.90;;;;;;;12.97;100.00;103286.91;1980680;72;26270;-72
2021/11/19 11:40:20;;;;;;;50.30;47.00;;;;;;;12.99;100.00;103277.77;2016867;71;33349;-71
2021/11/19 11:42:53;;;;;;;50.90;47.63;;;;;;;12.96;100.00;103282.44;1983334;72;26201;-72
2021/11/19 11:48:47;;;;;;;50.17;46.93;;;;;;;12.94;100.00;103273.45;2008209;71;33283;-72
2021/11/19 11:54:38;;;;;;;49.00;45.80;;;;;;;13.00;100.00;103263.27;1996889;71;33376;-72
2021/11/19 12:00:54;;;;;;;51.13;47.83;;;;;;;13.03;100.00;103259.98;2006048;71;33348;-73
2021/11/19 12:06:47;;;;;;;52.70;49.13;;;;;;;13.09;100.00;103253.44;2002391;71;33458;-72
2021/11/19 12:12:47;;;;;;;52.07;48.57;;;;;;;13.06;100.00;103250.57;1997298;71;32764;-72
2021/11/19 12:18:38;;;;;;;52.23;48.63;;;;;;;13.11;100.00;103251.27;1997350;71;33253;-71
2021/11/19 12:21:12;;;;;;;53.67;49.87;;;;;;;13.11;100.00;103270.80;1981881;72;26262;-72
2021/11/19 12:27:05;;;;;;;57.10;53.07;;;;;;;13.01;100.00;103251.84;2003285;71;33524;-71
2021/11/19 12:32:56;;;;;;;55.80;51.90;;;;;;;13.10;100.00;103253.21;1991925;71;32881;-73
2021/11/19 12:38:45;;;;;;;54.13;50.50;;;;;;;13.10;100.00;103246.23;2015039;71;32896;-73
2021/11/19 12:44:58;;;;;;;56.87;52.73;;;;;;;13.03;100.00;103237.12;2009975;71;33396;-72
2021/11/19 12:48:06;;;;;;;55.57;51.67;;;;;;;12.98;100.00;103241.17;1984282;72;26269;-72
2021/11/19 12:54:24;;;;;;;52.97;49.37;;;;;;;13.11;100.00;103235.92;2004148;71;32901;-71
2021/11/19 12:57:43;;;;;;;54.37;50.57;;;;;;;13.11;100.00;103234.52;1961566;72;26196;-72
2021/11/19 13:00:27;;;;;;;54.33;50.63;;;;;;;13.10;100.00;103235.58;1972536;72;26208;-72
2021/11/19 13:06:45;;;;;;;53.77;49.97;;;;;;;13.12;100.00;103219.48;1996999;71;32817;-73
2021/11/19 13:13:34;;;;;;;54.10;50.30;;;;;;;13.13;100.00;103219.80;2013139;71;33390;-74
2021/11/19 13:16:39;;;;;;;54.67;50.77;;;;;;;13.12;100.00;103227.31;1969454;72;26302;-72
2021/11/19 13:23:32;;;;;;;55.93;51.90;;;;;;;13.19;100.00;103221.59;2016836;71;33424;-70
2021/11/19 13:29:55;;;;;;;57.50;53.40;;;;;;;13.16;100.00;103222.09;2016794;71;32824;-72
2021/11/19 13:36:46;;;;;;;58.03;53.93;;;;;;;13.20;100.00;103222.75;2006575;71;33217;-72
2021/11/19 13:42:51;;;;;;;57.57;53.57;;;;;;;13.24;100.00;103209.15;2002677;71;33246;-71
2021/11/19 13:49:32;;;;;;;57.00;53.00;;;;;;;13.23;100.00;103213.02;2004724;71;33211;-71
2021/11/19 13:52:07;;;;;;;60.13;56.03;;;;;;;13.16;100.00;103213.17;1958877;72;26643;-74
2021/11/19 13:58:03;;;;;;;58.60;53.93;;;;;;;13.29;100.00;103211.20;2015016;71;32861;-71
2021/11/19 14:03:48;;;;;;;57.67;53.43;;;;;;;13.21;100.00;103207.70;2004703;71;33257;-72
2021/11/19 14:09:42;;;;;;;60.17;55.97;;;;;;;13.23;100.00;103206.05;2016842;71;33349;-71
2021/11/19 14:15:34;;;;;;;58.47;54.20;;;;;;;13.21;100.00;103202.67;2004126;71;33364;-75
2021/11/19 14:27:42;;;;;;;62.47;58.07;;;;;;;13.30;100.00;103197.01;2015158;71;32944;-73
2021/11/19 14:33:35;;;;;;;60.87;56.57;;;;;;;13.28;100.00;103183.83;2008534;71;32766;-74
2021/11/19 14:39:24;;;;;;;61.23;57.10;;;;;;;13.22;100.00;103183.44;2003148;71;33321;-73
2021/11/19 14:45:13;;;;;;;60.20;55.97;;;;;;;13.20;100.00;103176.70;2002983;71;32878;-73
2021/11/19 14:51:02;;;;;;;62.60;58.10;;;;;;;13.22;100.00;103175.06;2012349;71;33233;-72
2021/11/19 14:57:01;;;;;;;62.07;57.57;;;;;;;13.19;100.00;103172.75;1995010;71;33322;-74
2021/11/19 15:03:03;;;;;;;62.97;58.20;;;;;;;13.17;100.00;103176.34;2009820;71;33299;-74
2021/11/19 15:12:45;;;;;;;66.10;61.13;;;;;;;13.10;100.00;103168.61;2011499;71;32837;-73
2021/11/19 15:18:41;;;;;;;65.77;60.87;;;;;;;13.15;100.00;103167.36;2017129;71;32880;-74
2021/11/19 15:24:47;;;;;;;68.93;63.30;;;;;;;13.09;100.00;103173.91;2001330;71;32814;-75
2021/11/19 15:31:05;;;;;;;67.50;62.00;;;;;;;13.06;100.00;103174.38;2017480;71;32898;-74
2021/11/19 15:37:08;;;;;;;66.20;61.00;;;;;;;12.97;100.00;103181.42;2004823;71;33408;-72
2021/11/19 15:42:55;;;;;;;62.30;57.60;;;;;;;12.95;100.00;103178.05;2018610;71;32880;-71
2021/11/19 15:48:41;;;;;;;64.70;59.60;;;;;;;12.92;100.00;103174.36;1998829;71;33382;-74
2021/11/19 15:54:28;;;;;;;61.10;56.33;;;;;;;12.93;100.00;103178.82;2004112;71;32897;-72
2021/11/19 16:00:31;;;;;;;63.37;58.57;;;;;;;12.92;100.00;103181.33;2000824;71;33386;-71
2021/11/19 16:06:49;;;;;;;64.13;59.30;;;;;;;13.03;100.00;103189.68;2015410;71;33302;-72
2021/11/19 16:12:54;;;;;;;63.57;58.63;;;;;;;13.05;100.00;103190.84;2000637;71;33357;-73
2021/11/19 16:18:42;;;;;;;63.83;59.03;;;;;;;13.00;100.00;103185.99;2006503;71;32847;-73
2021/11/19 16:24:30;;;;;;;63.10;58.30;;;;;;;13.02;100.00;103189.91;2006402;70;32772;-72
2021/11/19 16:30:19;;;;;;;63.50;58.53;;;;;;;12.99;100.00;103190.41;2009861;71;32860;-72
2021/11/19 16:36:03;;;;;;;65.40;60.53;;;;;;;12.92;100.00;103193.89;2009224;71;32893;-74
2021/11/19 16:41:49;;;;;;;64.47;59.77;;;;;;;12.89;100.00;103190.17;1991636;71;32861;-72
2021/11/19 16:47:35;;;;;;;61.90;57.07;;;;;;;12.83;100.00;103192.02;2018641;71;33377;-73
2021/11/19 16:53:25;;;;;;;64.07;58.83;;;;;;;12.76;100.00;103190.72;1996996;71;32816;-73
2021/11/19 16:59:12;;;;;;;66.23;61.07;;;;;;;12.79;100.00;103192.20;2017087;71;33369;-69
2021/11/19 17:05:00;;;;;;;67.20;62.20;;;;;;;12.80;100.00;103195.27;2004650;71;32836;-69
2021/11/19 17:10:47;;;;;;;65.53;60.50;;;;;;;12.65;100.00;103196.31;2009809;71;32807;-69
2021/11/19 17:16:34;;;;;;;65.97;60.87;;;;;;;12.66;100.00;103194.66;2007765;71;32928;-69
2021/11/19 17:22:19;;;;;;;65.43;60.30;;;;;;;12.71;100.00;103200.91;2016965;71;33404;-69
2021/11/19 17:28:05;;;;;;;64.17;58.97;;;;;;;12.62;100.00;103199.02;1995318;71;33358;-67
2021/11/19 17:33:51;;;;;;;62.33;57.33;;;;;;;12.64;100.00;103202.97;2006300;71;32769;-69
2021/11/19 17:39:40;;;;;;;62.80;57.70;;;;;;;12.60;100.00;103207.34;1995284;71;32852;-72
2021/11/19 17:45:28;;;;;;;60.50;55.70;;;;;;;12.55;100.00;103202.48;2009648;71;32939;-71
2021/11/19 17:48:02;;;;;;;60.03;55.63;;;;;;;12.53;100.00;103205.22;1975622;72;26709;-69
2021/11/19 17:53:49;;;;;;;59.00;54.67;;;;;;;12.52;100.00;103197.94;2009501;71;33472;-71
2021/11/19 17:59:36;;;;;;;60.70;56.20;;;;;;;12.58;100.00;103207.56;2012085;71;32789;-71
2021/11/19 18:05:23;;;;;;;57.80;53.53;;;;;;;12.62;100.00;103208.78;1903126;70;33111;-64
2021/11/19 18:11:11;;;;;;;62.13;57.57;;;;;;;12.50;100.00;103208.47;2011311;71;33296;-65
2021/11/19 18:16:59;;;;;;;59.70;55.20;;;;;;;12.51;100.00;103200.41;2011749;71;32904;-65
2021/11/19 18:22:44;;;;;;;61.03;56.20;;;;;;;12.59;100.00;103202.30;1990991;71;32742;-68
2021/11/19 18:28:28;;;;;;;63.60;58.77;;;;;;;12.50;100.00;103196.77;2003931;71;32944;-68
2021/11/19 18:34:15;;;;;;;62.97;58.17;;;;;;;12.48;100.00;103196.72;2002446;71;32753;-71
2021/11/19 18:40:03;;;;;;;62.50;57.67;;;;;;;12.55;100.00;103204.42;1991345;71;32835;-67
2021/11/19 18:45:50;;;;;;;62.37;57.67;;;;;;;12.65;100.00;103206.92;2014736;71;32821;-71
2021/11/19 18:51:38;;;;;;;64.23;59.33;;;;;;;12.57;100.00;103210.61;2016596;71;32856;-74
2021/11/19 18:57:26;;;;;;;68.50;63.20;;;;;;;12.43;100.00;103210.53;1997024;71;32924;-77
2021/11/19 19:03:12;;;;;;;61.67;56.87;;;;;;;12.43;100.00;103190.47;2009694;70;33270;-76
2021/11/19 19:08:59;;;;;;;62.03;57.13;;;;;;;12.54;100.00;103217.50;2013846;71;32948;-78
2021/11/19 19:14:46;;;;;;;63.43;58.47;;;;;;;12.48;100.00;103213.45;2018588;71;33357;-74
2021/11/19 19:20:38;;;;;;;63.97;58.83;;;;;;;12.48;100.00;103215.70;2014742;71;32807;-74
2021/11/19 19:26:22;;;;;;;65.63;60.43;;;;;;;12.50;100.00;103210.72;2014842;71;32787;-76
2021/11/19 19:32:11;;;;;;;62.83;58.03;;;;;;;12.39;100.00;103201.80;1998393;71;32828;-75
2021/11/19 19:38:03;;;;;;;64.00;59.00;;;;;;;12.25;100.00;103210.92;2004522;71;32762;-76
2021/11/19 19:43:49;;;;;;;62.60;57.80;;;;;;;12.28;100.00;103202.61;2002463;70;32822;-76
2021/11/19 19:49:34;;;;;;;63.00;58.33;;;;;;;12.24;100.00;103204.18;2013390;71;32812;-72
2021/11/19 19:55:22;;;;;;;61.70;56.90;;;;;;;12.18;100.00;103209.34;1991412;71;32797;-73
2021/11/19 20:01:09;;;;;;;63.00;58.20;;;;;;;12.13;100.00;103219.80;2004229;70;32760;-72
2021/11/19 20:06:55;;;;;;;62.30;57.10;;;;;;;12.10;100.00;103220.83;2006194;71;33299;-74
2021/11/19 20:12:41;;;;;;;67.23;62.13;;;;;;;12.14;100.00;103212.30;2007889;71;33358;-74
2021/11/19 20:18:28;;;;;;;66.00;61.00;;;;;;;12.09;100.00;103215.80;2009178;71;33341;-73
2021/11/19 20:24:19;;;;;;;66.17;61.03;;;;;;;12.08;100.00;103216.87;1959897;72;33075;-73
2021/11/19 20:30:04;;;;;;;67.07;62.17;;;;;;;12.02;100.00;103210.03;2000673;71;32889;-75
2021/11/19 20:35:53;;;;;;;64.97;59.93;;;;;;;12.02;100.00;103216.98;2007392;71;32934;-74
2021/11/19 20:41:39;;;;;;;66.50;61.33;;;;;;;12.06;100.00;103216.82;2006091;71;32784;-74
2021/11/19 20:47:26;;;;;;;69.93;64.83;;;;;;;12.10;100.00;103213.86;2016619;71;32905;-75
2021/11/19 20:53:14;;;;;;;74.63;69.13;;;;;;;12.08;100.00;103201.55;2007477;71;33070;-72
2021/11/19 20:59:00;;;;;;;70.80;65.47;;;;;;;12.10;100.00;103204.11;2012829;71;33427;-73
2021/11/19 21:04:48;;;;;;;70.27;64.87;;;;;;;12.14;100.00;103204.79;2014981;71;32851;-74
2021/11/19 21:10:33;;;;;;;72.40;66.80;;;;;;;12.10;100.00;103202.17;2014639;71;30874;-73
2021/11/19 21:16:18;;;;;;;71.43;65.90;;;;;;;12.20;100.00;103206.60;2006055;71;32907;-71
2021/11/19 21:22:03;;;;;;;70.90;65.50;;;;;;;12.21;100.00;103197.70;2009689;71;33309;-74
2021/11/19 21:27:47;;;;;;;72.60;66.73;;;;;;;12.10;100.00;103196.61;2014694;71;32875;-73
2021/11/19 21:33:34;;;;;;;65.43;60.27;;;;;;;12.13;100.00;103191.94;2016476;71;32813;-72
2021/11/19 21:39:22;;;;;;;73.73;67.90;;;;;;;12.03;100.00;103197.23;2006077;71;33332;-72
2021/11/19 21:45:12;;;;;;;71.60;65.80;;;;;;;12.02;100.00;103176.59;2009304;71;32957;-73
2021/11/19 21:50:59;;;;;;;71.00;65.50;;;;;;;12.01;100.00;103179.07;2014619;71;32866;-73
2021/11/19 21:56:47;;;;;;;72.20;66.07;;;;;;;11.97;100.00;103191.23;1996885;71;32820;-73
2021/11/19 22:02:36;;;;;;;73.83;67.63;;;;;;;12.20;100.00;103186.25;2011358;71;32835;-73
2021/11/19 22:08:24;;;;;;;67.43;61.83;;;;;;;12.11;100.00;103183.50;2009351;71;33394;-73
2021/11/19 22:14:11;;;;;;;74.60;68.13;;;;;;;12.01;100.00;103183.25;2009713;71;33363;-74
2021/11/19 22:19:59;;;;;;;74.93;68.43;;;;;;;12.07;100.00;103180.34;2011032;71;32910;-74
2021/11/19 22:25:42;;;;;;;73.53;67.23;;;;;;;12.08;100.00;103172.84;2013347;71;32882;-74
2021/11/19 22:31:30;;;;;;;77.23;70.87;;;;;;;12.04;100.00;103164.66;1998304;71;32902;-71
2021/11/19 22:37:19;;;;;;;73.40;67.17;;;;;;;12.12;100.00;103165.16;2010922;71;32850;-72
2021/11/19 22:43:06;;;;;;;72.43;66.03;;;;;;;12.09;100.00;103151.71;2000834;71;33414;-74
2021/11/19 22:48:51;;;;;;;74.23;67.83;;;;;;;12.08;100.00;103143.58;2007435;71;32851;-71
2021/11/19 22:54:38;;;;;;;77.47;70.87;;;;;;;12.01;100.00;103138.14;2006204;71;32972;-70
2021/11/19 23:00:27;;;;;;;74.07;67.63;;;;;;;11.96;100.00;103131.03;2016375;71;32813;-72
2021/11/19 23:06:11;;;;;;;75.93;68.93;;;;;;;11.95;100.00;103132.11;2000675;71;33275;-71
2021/11/19 23:11:56;;;;;;;75.17;68.27;;;;;;;11.95;100.00;103127.94;2014785;71;33005;-72
2021/11/19 23:17:46;;;;;;;75.70;68.80;;;;;;;11.91;100.00;103110.00;2014771;71;32958;-71
2021/11/19 23:23:32;;;;;;;76.37;69.47;;;;;;;11.97;100.00;103118.81;2009147;71;33492;-71
2021/11/19 23:29:20;;;;;;;81.80;74.63;;;;;;;11.96;100.00;103116.25;2012852;71;33312;-72
2021/11/19 23:35:09;;;;;;;75.93;68.80;;;;;;;12.02;100.00;103099.98;2018189;71;32838;-72
2021/11/19 23:40:54;;;;;;;79.30;72.37;;;;;;;12.01;100.00;103105.25;2002500;71;33413;-71
2021/11/19 23:46:42;;;;;;;80.53;73.47;;;;;;;11.91;100.00;103102.19;2002185;71;33314;-71
2021/11/19 23:52:29;;;;;;;78.90;72.13;;;;;;;11.84;100.00;103107.88;2014524;71;33399;-72
2021/11/19 23:58:15;;;;;;;82.87;75.63;;;;;;;11.97;100.00;103095.67;2014695;71;32951;-71
